sensor_id;sensor_type;location;lat;lon;timestamp;pressure;altitude;pressure_sealevel;temperature
68012;BMP180;54794;48.348;7.878;2024-02-16T05:57:14;98915.00;;;10.80
68012;BMP180;54794;48.348;7.878;2024-02-16T07:50:31;99016.00;;;11.80
68012;BMP180;54794;48.348;7.878;2024-02-16T07:56:57;99038.00;;;12.00
68012;BMP180;54794;48.348;7.878;2024-02-16T07:59:28;99034.00;;;12.00
68012;BMP180;54794;48.348;7.878;2024-02-16T08:02:03;99029.00;;;12.30
68012;BMP180;54794;48.348;7.878;2024-02-16T08:04:33;99029.00;;;12.30
68012;BMP180;54794;48.348;7.878;2024-02-16T08:07:08;99031.00;;;12.40
68012;BMP180;54794;48.348;7.878;2024-02-16T08:09:39;99039.00;;;12.50
68012;BMP180;54794;48.348;7.878;2024-02-16T08:12:14;99028.00;;;12.50
68012;BMP180;54794;48.348;7.878;2024-02-16T08:14:42;99042.00;;;12.60
68012;BMP180;54794;48.348;7.878;2024-02-16T08:17:15;99041.00;;;12.60
68012;BMP180;54794;48.348;7.878;2024-02-16T08:49:49;99062.00;;;13.40
68012;BMP180;54794;48.348;7.878;2024-02-16T08:53:34;99073.00;;;13.60
68012;BMP180;54794;48.348;7.878;2024-02-16T08:56:41;99073.00;;;13.80
68012;BMP180;54794;48.348;7.878;2024-02-16T08:59:51;99069.00;;;14.00
68012;BMP180;54794;48.348;7.878;2024-02-16T09:03:32;99075.00;;;14.10
68012;BMP180;54794;48.348;7.878;2024-02-16T09:06:39;99083.00;;;14.10
68012;BMP180;54794;48.348;7.878;2024-02-16T09:13:58;99076.00;;;14.30
68012;BMP180;54794;48.348;7.878;2024-02-16T09:21:02;99082.00;;;14.50
68012;BMP180;54794;48.348;7.878;2024-02-16T09:23:37;99085.00;;;14.70
68012;BMP180;54794;48.348;7.878;2024-02-16T09:26:17;99077.00;;;14.90
68012;BMP180;54794;48.348;7.878;2024-02-16T09:28:53;99081.00;;;15.00
68012;BMP180;54794;48.348;7.878;2024-02-16T09:31:36;99082.00;;;15.20
68012;BMP180;54794;48.348;7.878;2024-02-16T09:34:58;99087.00;;;15.50
68012;BMP180;54794;48.348;7.878;2024-02-16T09:37:46;99090.00;;;15.60
68012;BMP180;54794;48.348;7.878;2024-02-16T09:40:27;99091.00;;;15.70
68012;BMP180;54794;48.348;7.878;2024-02-16T09:43:03;99090.00;;;15.80
68012;BMP180;54794;48.348;7.878;2024-02-16T09:48:28;99098.00;;;16.00
68012;BMP180;54794;48.348;7.878;2024-02-16T09:51:11;99104.00;;;15.80
68012;BMP180;54794;48.348;7.878;2024-02-16T11:44:55;99194.00;;;16.90
68012;BMP180;54794;48.348;7.878;2024-02-16T11:47:25;99193.00;;;16.80
68012;BMP180;54794;48.348;7.878;2024-02-16T11:50:09;99193.00;;;16.70
68012;BMP180;54794;48.348;7.878;2024-02-16T11:52:47;99197.00;;;16.70
68012;BMP180;54794;48.348;7.878;2024-02-16T11:55:42;99196.00;;;16.60
68012;BMP180;54794;48.348;7.878;2024-02-16T11:58:12;99195.00;;;16.80
68012;BMP180;54794;48.348;7.878;2024-02-16T12:05:18;99211.00;;;16.80
68012;BMP180;54794;48.348;7.878;2024-02-16T12:09:29;99206.00;;;17.00
68012;BMP180;54794;48.348;7.878;2024-02-16T12:13:04;99208.00;;;17.10
68012;BMP180;54794;48.348;7.878;2024-02-16T12:16:41;99218.00;;;17.30
68012;BMP180;54794;48.348;7.878;2024-02-16T12:19:56;99214.00;;;17.40
68012;BMP180;54794;48.348;7.878;2024-02-16T12:23:30;99215.00;;;17.30
68012;BMP180;54794;48.348;7.878;2024-02-16T12:27:09;99211.00;;;17.30
68012;BMP180;54794;48.348;7.878;2024-02-16T12:30:22;99218.00;;;16.70
68012;BMP180;54794;48.348;7.878;2024-02-16T12:33:42;99219.00;;;16.70
68012;BMP180;54794;48.348;7.878;2024-02-16T12:36:38;99224.00;;;16.50
68012;BMP180;54794;48.348;7.878;2024-02-16T12:40:22;99225.00;;;16.40
68012;BMP180;54794;48.348;7.878;2024-02-16T12:44:01;99228.00;;;16.50
68012;BMP180;54794;48.348;7.878;2024-02-16T14:15:54;99273.00;;;15.50
68012;BMP180;54794;48.348;7.878;2024-02-16T15:48:07;99342.00;;;15.40
68012;BMP180;54794;48.348;7.878;2024-02-16T15:55:37;99349.00;;;15.50
68012;BMP180;54794;48.348;7.878;2024-02-16T15:59:01;99346.00;;;15.50
68012;BMP180;54794;48.348;7.878;2024-02-16T16:06:10;99359.00;;;15.30
68012;BMP180;54794;48.348;7.878;2024-02-16T16:09:53;99362.00;;;15.30
68012;BMP180;54794;48.348;7.878;2024-02-16T16:13:00;99362.00;;;15.40
68012;BMP180;54794;48.348;7.878;2024-02-16T16:16:28;99366.00;;;15.10
68012;BMP180;54794;48.348;7.878;2024-02-16T16:20:23;99367.00;;;15.20
68012;BMP180;54794;48.348;7.878;2024-02-16T16:23:49;99371.00;;;15.20
68012;BMP180;54794;48.348;7.878;2024-02-16T16:30:12;99380.00;;;15.10
68012;BMP180;54794;48.348;7.878;2024-02-16T16:33:51;99387.00;;;15.20
68012;BMP180;54794;48.348;7.878;2024-02-16T16:36:52;99379.00;;;15.30
68012;BMP180;54794;48.348;7.878;2024-02-16T16:43:42;99383.00;;;15.30
68012;BMP180;54794;48.348;7.878;2024-02-16T16:50:22;99400.00;;;15.20
68012;BMP180;54794;48.348;7.878;2024-02-16T16:53:51;99407.00;;;15.20
68012;BMP180;54794;48.348;7.878;2024-02-16T16:56:38;99400.00;;;15.20
68012;BMP180;54794;48.348;7.878;2024-02-16T17:00:43;99411.00;;;15.30
68012;BMP180;54794;48.348;7.878;2024-02-16T17:04:02;99407.00;;;15.20
68012;BMP180;54794;48.348;7.878;2024-02-16T17:07:08;99429.00;;;15.20
68012;BMP180;54794;48.348;7.878;2024-02-16T17:10:15;99424.00;;;15.10
68012;BMP180;54794;48.348;7.878;2024-02-16T17:13:54;99417.00;;;15.00
68012;BMP180;54794;48.348;7.878;2024-02-16T17:25:07;99448.00;;;15.10
68012;BMP180;54794;48.348;7.878;2024-02-16T17:28:25;99448.00;;;15.00
68012;BMP180;54794;48.348;7.878;2024-02-16T17:31:30;99452.00;;;15.00
68012;BMP180;54794;48.348;7.878;2024-02-16T17:34:22;99448.00;;;15.00
68012;BMP180;54794;48.348;7.878;2024-02-16T17:37:42;99457.00;;;14.90
68012;BMP180;54794;48.348;7.878;2024-02-16T17:40:52;99454.00;;;14.90
68012;BMP180;54794;48.348;7.878;2024-02-16T17:46:50;99470.00;;;14.70
68012;BMP180;54794;48.348;7.878;2024-02-16T17:49:54;99471.00;;;14.70
68012;BMP180;54794;48.348;7.878;2024-02-16T17:52:58;99467.00;;;14.60
68012;BMP180;54794;48.348;7.878;2024-02-16T17:56:15;99482.00;;;14.70
68012;BMP180;54794;48.348;7.878;2024-02-16T17:59:23;99478.00;;;14.60
68012;BMP180;54794;48.348;7.878;2024-02-16T18:02:20;99489.00;;;14.70
68012;BMP180;54794;48.348;7.878;2024-02-16T18:08:44;99484.00;;;14.70
68012;BMP180;54794;48.348;7.878;2024-02-16T18:18:22;99502.00;;;14.60
68012;BMP180;54794;48.348;7.878;2024-02-16T18:25:27;99502.00;;;14.60
68012;BMP180;54794;48.348;7.878;2024-02-16T18:33:02;99522.00;;;14.50
68012;BMP180;54794;48.348;7.878;2024-02-16T18:40:26;99523.00;;;14.50
68012;BMP180;54794;48.348;7.878;2024-02-16T18:44:20;99521.00;;;14.50
68012;BMP180;54794;48.348;7.878;2024-02-16T18:55:59;99528.00;;;14.50
68012;BMP180;54794;48.348;7.878;2024-02-16T20:21:33;99631.00;;;13.70
68012;BMP180;54794;48.348;7.878;2024-02-16T20:51:16;99657.00;;;13.80
68012;BMP180;54794;48.348;7.878;2024-02-16T23:12:36;99774.00;;;13.40
68012;BMP180;54794;48.348;7.878;2024-02-16T23:19:32;99776.00;;;13.40
68012;BMP180;54794;48.348;7.878;2024-02-16T23:22:19;99778.00;;;13.50
68012;BMP180;54794;48.348;7.878;2024-02-16T23:26:34;99793.00;;;13.10
68012;BMP180;54794;48.348;7.878;2024-02-16T23:30:05;99804.00;;;13.30
68012;BMP180;54794;48.348;7.878;2024-02-16T23:33:34;99804.00;;;13.40
68012;BMP180;54794;48.348;7.878;2024-02-16T23:36:45;99798.00;;;13.50
68012;BMP180;54794;48.348;7.878;2024-02-16T23:42:41;99797.00;;;13.50
68012;BMP180;54794;48.348;7.878;2024-02-16T23:45:21;99812.00;;;13.50
68012;BMP180;54794;48.348;7.878;2024-02-16T23:48:47;99794.00;;;13.40
68012;BMP180;54794;48.348;7.878;2024-02-16T23:51:38;99802.00;;;13.40
68012;BMP180;54794;48.348;7.878;2024-02-16T23:54:58;99817.00;;;13.40
68012;BMP180;54794;48.348;7.878;2024-02-16T23:57:45;99811.00;;;13.20
